createdAt,value
2018-12-20T00:01:01.895Z,3.29
2018-12-20T00:06:07.162Z,3.38
2018-12-20T00:11:13.914Z,3.22
2018-12-20T00:16:19.073Z,3.12
2018-12-20T00:21:24.215Z,2.89
2018-12-20T00:26:29.199Z,3.20
2018-12-20T00:31:34.151Z,2.76
2018-12-20T00:36:39.027Z,3.26
2018-12-20T00:41:43.880Z,2.93
2018-12-20T00:46:48.829Z,3.06
2018-12-20T00:57:04.204Z,2.46
2018-12-20T01:02:09.369Z,2.59
2018-12-20T01:07:14.627Z,2.46
2018-12-20T01:12:19.708Z,2.37
2018-12-20T01:17:26.725Z,2.40
2018-12-20T01:22:31.678Z,2.57
2018-12-20T01:27:37.021Z,2.47
2018-12-20T01:32:42.015Z,2.77
2018-12-20T01:37:46.882Z,2.49
2018-12-20T01:42:52.412Z,2.34
2018-12-20T01:47:57.268Z,2.69
2018-12-20T01:53:03.300Z,2.43
2018-12-20T01:58:08.521Z,2.68
2018-12-20T02:03:13.398Z,2.76
2018-12-20T02:08:18.413Z,2.61
2018-12-20T02:18:33.487Z,2.33
2018-12-20T02:23:39.083Z,2.48
2018-12-20T02:28:44.048Z,2.57
2018-12-20T02:33:49.342Z,2.52
2018-12-20T02:38:54.533Z,2.65
2018-12-20T02:43:59.557Z,2.22
2018-12-20T02:49:05.373Z,2.35
2018-12-20T02:54:10.465Z,2.36
2018-12-20T02:59:15.729Z,2.49
2018-12-20T03:04:21.937Z,2.75
2018-12-20T03:09:26.985Z,2.58
2018-12-20T03:14:31.976Z,2.65
2018-12-20T03:19:37.599Z,2.57
2018-12-20T03:24:42.803Z,2.64
2018-12-20T03:29:47.973Z,2.62
2018-12-20T03:34:53.270Z,2.45
2018-12-20T03:39:58.491Z,2.62
2018-12-20T03:45:03.570Z,2.90
2018-12-20T03:50:12.296Z,2.62
2018-12-20T03:55:17.808Z,2.83
2018-12-20T04:00:23.731Z,2.65
2018-12-20T04:05:28.678Z,2.82
2018-12-20T04:10:33.663Z,2.69
2018-12-20T04:15:38.850Z,2.65
2018-12-20T04:20:43.958Z,2.64
2018-12-20T04:25:48.983Z,2.70
2018-12-20T04:30:53.878Z,2.32
2018-12-20T04:35:59.458Z,2.72
2018-12-20T04:41:05.662Z,2.74
2018-12-20T04:46:10.681Z,2.38
2018-12-20T04:51:16.963Z,2.46
2018-12-20T04:56:22.272Z,2.46
2018-12-20T05:01:27.591Z,2.55
2018-12-20T05:06:33.705Z,2.60
2018-12-20T05:11:38.561Z,2.39
2018-12-20T05:16:43.899Z,2.38
2018-12-20T05:21:49.061Z,2.63
2018-12-20T05:26:58.389Z,2.33
2018-12-20T05:32:03.658Z,2.31
2018-12-20T05:37:08.834Z,2.50
2018-12-20T05:42:13.976Z,2.46
2018-12-20T05:47:19.269Z,2.21
2018-12-20T05:52:24.617Z,2.27
2018-12-20T05:57:29.481Z,2.27
2018-12-20T06:02:34.626Z,2.19
2018-12-20T06:07:40.587Z,2.42
2018-12-20T06:12:45.626Z,2.69
2018-12-20T06:17:51.112Z,2.44
2018-12-20T06:28:06.239Z,2.19
2018-12-20T06:33:11.127Z,2.45
2018-12-20T06:38:15.950Z,2.47
2018-12-20T06:43:20.960Z,2.43
2018-12-20T06:48:25.730Z,2.37
2018-12-20T06:53:30.634Z,2.52
2018-12-20T06:58:35.486Z,2.48
2018-12-20T07:03:40.952Z,2.70
2018-12-20T07:08:45.785Z,2.80
2018-12-20T07:13:50.652Z,3.04
2018-12-20T07:18:55.535Z,2.78
2018-12-20T07:24:00.379Z,2.66
2018-12-20T07:29:05.650Z,2.75
2018-12-20T07:34:10.568Z,2.85
2018-12-20T07:39:15.436Z,2.40
2018-12-20T07:44:21.644Z,2.77
2018-12-20T07:49:26.498Z,2.97
2018-12-20T07:54:31.340Z,2.89
2018-12-20T07:59:36.302Z,3.17
2018-12-20T08:04:41.237Z,2.96
2018-12-20T08:09:46.061Z,3.10
2018-12-20T08:14:51.005Z,3.15
2018-12-20T08:19:55.875Z,3.16
2018-12-20T08:25:01.031Z,3.18
2018-12-20T08:30:09.539Z,3.32
2018-12-20T08:35:14.495Z,3.41
2018-12-20T08:40:19.410Z,3.33
2018-12-20T08:45:24.861Z,3.65
2018-12-20T08:50:30.958Z,3.59
2018-12-20T08:55:36.536Z,3.62
2018-12-20T09:00:41.761Z,3.52
2018-12-20T09:05:46.867Z,3.48
2018-12-20T09:10:51.705Z,3.63
2018-12-20T09:15:56.882Z,3.41
2018-12-20T09:21:02.911Z,3.60
2018-12-20T09:26:07.849Z,3.79
2018-12-20T09:31:13.285Z,3.68
2018-12-20T09:36:18.190Z,4.06
2018-12-20T09:41:23.798Z,3.94
2018-12-20T09:46:28.779Z,3.77
2018-12-20T09:51:33.729Z,3.96
2018-12-20T09:56:39.383Z,3.91
2018-12-20T10:01:46.510Z,3.98
2018-12-20T10:06:52.039Z,4.09
2018-12-20T10:11:57.004Z,4.27
2018-12-20T10:17:02.344Z,4.11
2018-12-20T10:22:08.000Z,4.35
2018-12-20T10:27:13.070Z,3.78
2018-12-20T10:32:17.990Z,3.73
2018-12-20T10:37:22.845Z,3.53
2018-12-20T10:42:27.700Z,3.90
2018-12-20T10:47:33.339Z,4.02
2018-12-20T10:52:38.727Z,4.43
2018-12-20T10:57:43.679Z,4.60
2018-12-20T11:04:59.179Z,5.14
2018-12-20T11:10:09.798Z,5.14
2018-12-20T11:15:15.861Z,4.68
2018-12-20T11:20:21.360Z,4.95
2018-12-20T11:25:27.205Z,5.31
2018-12-20T11:30:34.174Z,5.17
2018-12-20T11:35:39.054Z,5.26
2018-12-20T11:40:44.031Z,5.43
2018-12-20T11:45:49.323Z,5.60
2018-12-20T11:50:55.995Z,5.75
2018-12-20T11:56:01.242Z,5.68
2018-12-20T12:01:07.741Z,5.73
2018-12-20T12:06:14.319Z,6.03
2018-12-20T12:11:20.454Z,6.10
2018-12-20T12:16:25.738Z,5.96
2018-12-20T12:21:30.625Z,5.48
2018-12-20T12:26:36.200Z,5.96
2018-12-20T12:31:41.076Z,5.91
2018-12-20T12:36:46.638Z,5.70
2018-12-20T12:41:51.569Z,5.97
2018-12-20T12:46:56.486Z,6.05
2018-12-20T12:52:01.359Z,5.99
2018-12-20T12:57:07.164Z,6.19
2018-12-20T13:02:12.414Z,6.21
2018-12-20T13:07:17.673Z,6.04
2018-12-20T13:12:22.832Z,6.12
2018-12-20T13:17:27.683Z,5.83
2018-12-20T13:22:32.737Z,6.02
2018-12-20T13:27:37.583Z,5.97
2018-12-20T13:32:42.421Z,6.10
2018-12-20T13:37:47.361Z,5.96
2018-12-20T13:42:52.836Z,6.11
2018-12-20T13:47:57.653Z,5.82
2018-12-20T13:58:18.981Z,5.83
2018-12-20T14:03:26.011Z,5.90
2018-12-20T14:08:30.917Z,5.83
2018-12-20T14:13:35.779Z,5.92
2018-12-20T14:18:41.458Z,5.81
2018-12-20T14:23:46.884Z,6.03
2018-12-20T14:28:52.755Z,5.91
2018-12-20T14:33:58.365Z,5.84
2018-12-20T14:39:04.866Z,5.62
2018-12-20T14:44:10.870Z,5.72
2018-12-20T14:49:15.771Z,6.11
2018-12-20T14:54:20.746Z,5.72
2018-12-20T15:04:35.829Z,5.74
2018-12-20T15:09:41.530Z,5.75
2018-12-20T15:14:46.618Z,5.87
2018-12-20T15:19:51.601Z,5.73
2018-12-20T15:24:56.485Z,5.79
2018-12-20T15:30:11.099Z,6.02
2018-12-20T15:35:16.069Z,5.85
2018-12-20T15:40:21.283Z,5.77
2018-12-20T15:45:26.358Z,5.73
2018-12-20T15:50:33.841Z,5.90
2018-12-20T15:55:39.772Z,5.82
2018-12-20T16:00:45.074Z,6.01
2018-12-20T16:05:50.899Z,6.00
2018-12-20T16:10:55.848Z,5.61
2018-12-20T16:16:01.018Z,5.67
2018-12-20T16:21:07.014Z,5.59
2018-12-20T16:26:13.572Z,5.83
2018-12-20T16:31:19.204Z,5.71
2018-12-20T16:36:25.730Z,5.47
2018-12-20T16:41:30.831Z,5.66
2018-12-20T16:46:35.978Z,5.62
2018-12-20T16:51:41.659Z,5.62
2018-12-20T16:56:46.620Z,5.45
2018-12-20T17:07:02.864Z,5.64
2018-12-20T17:12:07.772Z,5.57
2018-12-20T17:17:14.461Z,5.77
2018-12-20T17:22:19.711Z,5.67
2018-12-20T17:27:26.332Z,5.50
2018-12-20T17:32:32.971Z,5.72
2018-12-20T17:37:40.633Z,5.64
2018-12-20T17:42:46.144Z,5.58
2018-12-20T17:47:51.784Z,5.57
2018-12-20T17:52:57.330Z,5.53
2018-12-20T17:58:03.543Z,5.41
2018-12-20T18:03:08.845Z,5.42
2018-12-20T18:08:16.611Z,5.40
2018-12-20T18:13:22.739Z,5.56
2018-12-20T18:18:27.916Z,5.50
2018-12-20T18:23:33.528Z,5.62
2018-12-20T18:28:39.467Z,5.62
2018-12-20T18:33:45.749Z,5.52
2018-12-20T18:38:51.227Z,5.44
2018-12-20T18:43:56.246Z,5.71
2018-12-20T18:49:06.371Z,5.39
2018-12-20T18:54:12.918Z,5.48
2018-12-20T18:59:17.993Z,5.32
2018-12-20T19:04:24.101Z,5.19
2018-12-20T19:09:29.560Z,5.19
2018-12-20T19:14:35.574Z,5.17
2018-12-20T19:19:40.800Z,5.26
2018-12-20T19:24:50.634Z,5.23
2018-12-20T19:29:55.804Z,5.24
2018-12-20T19:35:05.926Z,5.43
2018-12-20T19:40:13.587Z,5.33
2018-12-20T19:45:21.417Z,5.45
2018-12-20T19:50:29.985Z,5.58
2018-12-20T19:55:35.782Z,5.47
2018-12-20T20:00:43.943Z,5.51
2018-12-20T20:05:50.508Z,5.56
2018-12-20T20:10:56.019Z,5.46
2018-12-20T20:16:03.568Z,5.58
2018-12-20T20:21:10.412Z,5.68
2018-12-20T20:26:15.558Z,5.85
2018-12-20T20:31:21.687Z,5.74
2018-12-20T20:36:28.498Z,5.60
2018-12-20T20:41:38.368Z,5.98
2018-12-20T20:46:46.270Z,5.97
2018-12-20T20:51:52.729Z,5.73
2018-12-20T20:57:00.984Z,5.78
2018-12-20T21:02:09.551Z,5.63
2018-12-20T21:07:20.971Z,5.96
2018-12-20T21:12:28.776Z,5.99
2018-12-20T21:17:35.022Z,5.73
2018-12-20T21:22:40.926Z,5.95
2018-12-20T21:27:46.362Z,5.79
2018-12-20T21:32:52.600Z,5.57
2018-12-20T21:37:58.126Z,5.90
2018-12-20T21:43:04.652Z,5.76
2018-12-20T21:48:09.614Z,5.70
2018-12-20T21:53:15.423Z,5.64
2018-12-20T21:58:20.904Z,5.63
2018-12-20T22:03:26.498Z,5.79
2018-12-20T22:08:32.667Z,5.75
2018-12-20T22:13:37.705Z,5.81
2018-12-20T22:18:42.770Z,5.74
2018-12-20T22:23:48.538Z,6.15
2018-12-20T22:28:55.029Z,6.04
2018-12-20T22:34:00.027Z,5.98
2018-12-20T22:39:08.034Z,6.12
2018-12-20T22:44:13.391Z,5.92
2018-12-20T22:49:18.203Z,6.02
2018-12-20T22:54:23.156Z,5.88
2018-12-20T22:59:28.936Z,5.95
2018-12-20T23:04:34.858Z,5.98
2018-12-20T23:09:40.127Z,6.00
2018-12-20T23:14:46.460Z,6.04
2018-12-20T23:19:52.762Z,5.92
2018-12-20T23:24:57.595Z,6.15
2018-12-20T23:30:05.811Z,5.67
2018-12-20T23:35:11.576Z,5.86
2018-12-20T23:40:17.615Z,5.74
2018-12-20T23:45:23.112Z,5.73
2018-12-20T23:50:28.019Z,5.73
2018-12-20T23:55:34.141Z,5.74
